Time;durP1;ratioP1;P1;durP2;ratioP2;P2;SDS_P1;SDS_P2;PMS_P1;PMS_P2;Temp;Humidity;BMP_temperature;BMP_pressure;BME280_temperature;BME280_humidity;BME280_pressure;Samples;Min_cycle;Max_cycle;Signal;HPM_P1;HPM_P2
2023/06/04 00:01:31;;;;;;;2.47;1.35;;;13.00;99.90;;;;;;5111233;28;20118;-64
2023/06/04 00:03:57;;;;;;;12.20;4.45;;;12.90;99.90;;;;;;5110940;28;20027;-65
2023/06/04 00:06:22;;;;;;;6.40;3.00;;;12.80;99.90;;;;;;5114765;28;20023;-65
2023/06/04 00:08:48;;;;;;;6.60;2.83;;;12.80;99.90;;;;;;5112002;28;20016;-64
2023/06/04 00:11:13;;;;;;;6.90;2.60;;;12.70;99.90;;;;;;5113546;28;20422;-66
2023/06/04 00:13:39;;;;;;;3.50;1.70;;;12.70;99.90;;;;;;5112563;28;20028;-65
2023/06/04 00:16:05;;;;;;;1.95;1.10;;;12.70;99.90;;;;;;5111258;28;20028;-65
2023/06/04 00:18:31;;;;;;;3.08;1.58;;;12.60;99.90;;;;;;5112981;28;20399;-65
2023/06/04 00:20:56;;;;;;;2.72;1.40;;;12.50;99.90;;;;;;5113053;28;20489;-65
2023/06/04 00:23:22;;;;;;;2.70;1.10;;;;;;;;;;5114117;28;20023;-61
2023/06/04 00:25:48;;;;;;;2.20;1.20;;;;;;;;;;5114205;28;20042;-63
2023/06/04 00:28:14;;;;;;;3.13;1.30;;;;;;;;;;5112979;28;20027;-64
2023/06/04 00:30:40;;;;;;;3.90;1.35;;;12.40;99.90;;;;;;5112255;28;20027;-64
2023/06/04 00:33:05;;;;;;;1.90;0.95;;;12.20;99.90;;;;;;5111998;28;20095;-64
2023/06/04 00:35:32;;;;;;;6.57;1.00;;;12.10;99.90;;;;;;5108469;28;20042;-65
2023/06/04 00:37:58;;;;;;;4.07;1.13;;;12.10;99.90;;;;;;5113780;28;20033;-64
2023/06/04 00:40:23;;;;;;;3.90;1.40;;;12.00;99.90;;;;;;5112269;28;20023;-65
2023/06/04 00:42:49;;;;;;;6.20;1.17;;;12.00;99.90;;;;;;5109962;28;20038;-60
2023/06/04 00:45:18;;;;;;;2.33;1.13;;;11.90;99.90;;;;;;5109683;28;20478;-64
2023/06/04 00:47:43;;;;;;;7.38;1.20;;;11.90;99.90;;;;;;5111040;28;20094;-64
2023/06/04 00:50:09;;;;;;;2.10;1.23;;;11.90;99.90;;;;;;5113785;28;20036;-65
2023/06/04 00:52:35;;;;;;;4.03;1.13;;;11.80;99.90;;;;;;5111534;28;20107;-65
2023/06/04 00:55:02;;;;;;;1.95;1.10;;;11.70;99.90;;;;;;5108094;28;20027;-65
2023/06/04 00:57:27;;;;;;;1.42;1.10;;;11.70;99.90;;;;;;5106351;28;20107;-65
2023/06/04 00:59:53;;;;;;;2.58;1.42;;;11.70;99.90;;;;;;5109270;28;20023;-65
2023/06/04 01:02:22;;;;;;;3.42;1.17;;;11.70;99.90;;;;;;5110372;28;20019;-65
2023/06/04 01:05:03;;;;;;;5.57;1.20;;;11.60;99.90;;;;;;5112895;28;20024;-66
2023/06/04 01:07:30;;;;;;;4.25;1.30;;;11.60;99.90;;;;;;5108245;28;20465;-66
2023/06/04 01:09:56;;;;;;;3.38;1.25;;;11.50;99.90;;;;;;5108147;28;20028;-64
2023/06/04 01:12:22;;;;;;;3.42;1.30;;;11.40;99.90;;;;;;5109128;28;20647;-64
2023/06/04 01:14:47;;;;;;;4.63;1.10;;;11.40;99.90;;;;;;5108497;28;20038;-65
2023/06/04 01:17:23;;;;;;;4.35;1.38;;;11.40;99.90;;;;;;5109695;28;20059;-65
2023/06/04 01:20:08;;;;;;;6.10;1.20;;;11.40;99.90;;;;;;5107294;28;20023;-65
2023/06/04 01:22:48;;;;;;;;;;;11.50;99.90;;;;;;5113508;28;20027;-66
2023/06/04 01:25:39;;;;;;;3.63;1.38;;;11.40;99.90;;;;;;5111393;28;19908;-63
2023/06/04 01:28:06;;;;;;;3.47;1.30;;;11.30;99.90;;;;;;5110991;28;20088;-65
2023/06/04 01:30:36;;;;;;;6.55;1.20;;;11.30;99.90;;;;;;5108184;28;20455;-65
2023/06/04 01:33:02;;;;;;;2.13;1.40;;;11.20;99.90;;;;;;5110833;28;20032;-65
2023/06/04 01:35:31;;;;;;;3.92;1.30;;;11.30;99.90;;;;;;5109334;28;20511;-65
2023/06/04 01:37:57;;;;;;;2.55;1.20;;;11.10;99.90;;;;;;5107200;27;20030;-65
2023/06/04 01:40:23;;;;;;;5.07;1.90;;;11.00;99.90;;;;;;5110390;28;20433;-66
2023/06/04 01:42:49;;;;;;;3.40;1.67;;;11.00;99.90;;;;;;5109701;28;20015;-65
2023/06/04 01:45:15;;;;;;;4.07;1.40;;;10.90;99.90;;;;;;5110566;28;20626;-63
2023/06/04 01:47:40;;;;;;;1.85;1.35;;;10.80;99.90;;;;;;5111459;28;20020;-65
2023/06/04 01:50:10;;;;;;;6.43;1.50;;;10.90;99.90;;;;;;5112168;28;20031;-65
2023/06/04 01:52:36;;;;;;;3.67;1.73;;;10.90;99.90;;;;;;5111191;28;20158;-66
2023/06/04 01:55:04;;;;;;;4.05;1.98;;;10.80;99.90;;;;;;5106657;28;20023;-64
2023/06/04 01:57:30;;;;;;;2.22;1.10;;;10.70;99.90;;;;;;5108570;28;20496;-65
2023/06/04 01:59:56;;;;;;;2.28;1.50;;;10.70;99.90;;;;;;5103159;28;20035;-66
2023/06/04 02:02:22;;;;;;;6.78;1.27;;;10.60;99.90;;;;;;5107851;28;20497;-64
2023/06/04 02:04:47;;;;;;;1.38;1.08;;;10.60;99.90;;;;;;5106551;28;20118;-65
2023/06/04 02:07:22;;;;;;;3.63;1.35;;;10.50;99.90;;;;;;5112267;28;20470;-66
2023/06/04 02:09:48;;;;;;;4.82;1.33;;;10.50;99.90;;;;;;5111617;28;20028;-64
2023/06/04 02:12:14;;;;;;;4.22;1.48;;;10.50;99.90;;;;;;5110834;28;20030;-65
2023/06/04 02:14:41;;;;;;;6.03;1.58;;;10.50;99.90;;;;;;5104756;28;20023;-65
2023/06/04 02:17:12;;;;;;;1.67;1.27;;;10.50;99.90;;;;;;5106421;28;20077;-64
2023/06/04 02:19:39;;;;;;;2.55;1.35;;;10.50;99.90;;;;;;5110036;28;20051;-64
2023/06/04 02:22:05;;;;;;;3.25;1.13;;;10.40;99.90;;;;;;5109567;28;20024;-65
2023/06/04 02:24:31;;;;;;;4.15;1.67;;;10.40;99.90;;;;;;5106462;28;20032;-65
2023/06/04 02:26:56;;;;;;;2.90;1.25;;;10.30;99.90;;;;;;5111145;28;20027;-65
2023/06/04 02:29:22;;;;;;;4.07;1.30;;;10.30;99.90;;;;;;5109272;28;20067;-64
2023/06/04 02:31:47;;;;;;;2.92;1.85;;;10.30;99.90;;;;;;5109564;28;20485;-66
2023/06/04 02:34:13;;;;;;;3.95;1.52;;;10.20;99.90;;;;;;5111715;28;20099;-65
2023/06/04 02:36:38;;;;;;;6.05;1.38;;;10.30;99.90;;;;;;5110742;28;20126;-65
2023/06/04 02:39:04;;;;;;;5.03;1.60;;;10.30;99.90;;;;;;5111221;28;20040;-64
2023/06/04 02:41:29;;;;;;;5.85;1.67;;;10.20;99.90;;;;;;5106144;28;20036;-64
2023/06/04 02:43:55;;;;;;;2.70;1.55;;;10.20;99.90;;;;;;5107537;28;20028;-63
2023/06/04 02:46:20;;;;;;;7.10;1.90;;;10.20;99.90;;;;;;5104938;28;20059;-66
2023/06/04 02:48:46;;;;;;;6.07;1.40;;;10.20;99.90;;;;;;5106924;28;20059;-65
2023/06/04 02:51:11;;;;;;;4.78;1.70;;;10.10;99.90;;;;;;5111370;28;20023;-66
2023/06/04 02:53:37;;;;;;;3.97;1.60;;;10.20;99.90;;;;;;5108633;28;20461;-66
2023/06/04 02:56:02;;;;;;;3.15;1.65;;;10.10;99.90;;;;;;5109698;28;20035;-64
2023/06/04 02:58:28;;;;;;;3.30;1.25;;;10.10;99.90;;;;;;5107982;28;20034;-66
2023/06/04 03:00:55;;;;;;;6.82;1.75;;;10.10;99.90;;;;;;5108862;28;20490;-65
2023/06/04 03:03:21;;;;;;;2.50;1.52;;;10.10;99.90;;;;;;5108726;28;20015;-66
2023/06/04 03:05:47;;;;;;;4.50;1.30;;;10.10;99.90;;;;;;5108106;28;20042;-65
2023/06/04 03:08:13;;;;;;;5.40;1.60;;;10.00;99.90;;;;;;5105368;28;20507;-64
2023/06/04 03:10:39;;;;;;;3.70;1.55;;;9.90;99.90;;;;;;5104165;28;20085;-65
2023/06/04 03:13:04;;;;;;;5.28;1.65;;;9.90;99.90;;;;;;5109042;28;20028;-65
2023/06/04 03:15:30;;;;;;;5.55;1.55;;;9.90;99.90;;;;;;5108006;28;20063;-64
2023/06/04 03:17:56;;;;;;;3.13;2.10;;;9.90;99.90;;;;;;5107207;28;20546;-65
2023/06/04 03:20:24;;;;;;;7.45;1.80;;;9.90;99.90;;;;;;5107028;28;20428;-63
2023/06/04 03:22:50;;;;;;;3.70;1.60;;;9.80;99.90;;;;;;5109378;28;20020;-65
2023/06/04 03:25:16;;;;;;;4.70;1.40;;;9.80;99.90;;;;;;5106255;28;20051;-64
2023/06/04 03:27:41;;;;;;;3.03;1.30;;;9.90;99.90;;;;;;5110229;28;20051;-65
2023/06/04 03:30:08;;;;;;;6.22;1.50;;;9.80;99.90;;;;;;5108725;28;20030;-64
2023/06/04 03:32:33;;;;;;;4.75;1.60;;;9.80;99.90;;;;;;5106759;28;20040;-66
2023/06/04 03:35:00;;;;;;;2.75;1.52;;;9.80;99.90;;;;;;5110409;28;20076;-65
2023/06/04 03:37:26;;;;;;;2.67;1.30;;;9.80;99.90;;;;;;5107513;28;20036;-64
2023/06/04 03:39:52;;;;;;;5.45;1.63;;;9.80;99.90;;;;;;5104026;28;20031;-65
2023/06/04 03:42:18;;;;;;;5.95;1.60;;;9.80;99.90;;;;;;5110645;28;20032;-65
2023/06/04 03:44:44;;;;;;;3.03;1.60;;;9.70;99.90;;;;;;5109613;28;20032;-64
2023/06/04 03:47:09;;;;;;;3.90;1.15;;;9.70;99.90;;;;;;5108362;28;20020;-64
2023/06/04 03:49:35;;;;;;;3.70;1.70;;;9.70;99.90;;;;;;5107993;28;20023;-65
2023/06/04 03:52:00;;;;;;;2.80;1.30;;;9.70;99.90;;;;;;5109794;28;20031;-66
2023/06/04 03:54:26;;;;;;;2.83;1.60;;;9.70;99.90;;;;;;5109303;28;20035;-65
2023/06/04 03:56:51;;;;;;;3.95;1.50;;;9.70;99.90;;;;;;5109919;28;20042;-64
2023/06/04 03:59:17;;;;;;;4.10;1.55;;;9.70;99.90;;;;;;5106757;28;20031;-64
2023/06/04 04:01:43;;;;;;;9.27;1.55;;;9.70;99.90;;;;;;5109171;28;20035;-64
2023/06/04 04:04:09;;;;;;;3.30;1.55;;;9.70;99.90;;;;;;5108833;28;20019;-64
2023/06/04 04:06:35;;;;;;;7.38;1.27;;;9.60;99.90;;;;;;5110432;28;20026;-62
2023/06/04 04:09:00;;;;;;;7.53;1.52;;;9.60;99.90;;;;;;5108585;28;20023;-64
2023/06/04 04:11:26;;;;;;;3.50;1.42;;;9.70;99.90;;;;;;5110150;28;20472;-65
2023/06/04 04:13:51;;;;;;;4.70;1.25;;;9.70;99.90;;;;;;5107479;28;20087;-65
2023/06/04 04:16:17;;;;;;;3.72;1.40;;;9.70;99.90;;;;;;5108530;28;20104;-64
2023/06/04 04:18:44;;;;;;;1.65;1.20;;;9.80;99.90;;;;;;5108602;28;20027;-63
2023/06/04 04:21:10;;;;;;;5.07;1.58;;;9.80;99.90;;;;;;5109367;28;20031;-63
2023/06/04 04:23:39;;;;;;;6.15;1.55;;;9.90;99.90;;;;;;5107355;28;20088;-65
2023/06/04 04:26:06;;;;;;;7.97;1.70;;;10.00;99.90;;;;;;5108966;28;20076;-65
2023/06/04 04:28:32;;;;;;;6.38;1.58;;;10.00;99.90;;;;;;5108973;28;20019;-64
2023/06/04 04:30:59;;;;;;;2.88;1.50;;;10.10;99.90;;;;;;5106865;28;20114;-65
2023/06/04 04:33:24;;;;;;;2.67;1.33;;;10.20;99.90;;;;;;5103775;28;20019;-66
2023/06/04 04:35:52;;;;;;;4.78;1.65;;;10.20;99.90;;;;;;5108675;28;20639;-64
2023/06/04 04:38:19;;;;;;;2.80;1.48;;;10.20;99.90;;;;;;5109384;28;20028;-64
2023/06/04 04:40:47;;;;;;;5.18;1.73;;;10.20;99.90;;;;;;5109892;28;20135;-65
2023/06/04 04:43:13;;;;;;;8.13;1.48;;;10.30;99.90;;;;;;5105960;28;20034;-66
2023/06/04 04:45:38;;;;;;;2.03;1.38;;;10.40;99.90;;;;;;5112205;28;20114;-64
2023/06/04 04:48:04;;;;;;;4.35;1.30;;;10.40;99.90;;;;;;5111031;28;20024;-64
2023/06/04 04:50:31;;;;;;;5.22;1.83;;;10.50;99.90;;;;;;5112850;27;20031;-64
2023/06/04 04:52:57;;;;;;;3.70;1.50;;;10.50;99.90;;;;;;5107793;28;20394;-63
2023/06/04 04:55:23;;;;;;;2.72;1.38;;;10.60;99.90;;;;;;5107551;28;20023;-63
2023/06/04 04:57:49;;;;;;;2.15;1.33;;;10.80;99.90;;;;;;5113808;28;20096;-63
2023/06/04 05:00:15;;;;;;;2.65;1.20;;;10.90;99.90;;;;;;5111947;28;20478;-62
2023/06/04 05:02:41;;;;;;;5.78;1.33;;;11.10;99.90;;;;;;5107890;28;20024;-65
2023/06/04 05:05:06;;;;;;;6.35;1.45;;;11.20;99.90;;;;;;5106635;28;20031;-64
2023/06/04 05:07:32;;;;;;;2.40;1.52;;;11.30;99.90;;;;;;5110189;28;20028;-64
2023/06/04 05:09:58;;;;;;;2.30;1.60;;;11.40;99.90;;;;;;5113603;28;20043;-65
2023/06/04 05:12:26;;;;;;;5.13;1.98;;;11.60;99.90;;;;;;5112157;28;20030;-64
2023/06/04 05:14:52;;;;;;;4.50;1.40;;;11.70;99.90;;;;;;5108606;28;20078;-64
2023/06/04 05:17:21;;;;;;;3.30;1.50;;;11.90;99.90;;;;;;5111024;28;21494;-63
2023/06/04 05:19:47;;;;;;;6.75;1.73;;;12.00;99.90;;;;;;5109116;28;20518;-64
2023/06/04 05:22:15;;;;;;;2.97;1.33;;;12.10;99.90;;;;;;5110628;28;20110;-65
2023/06/04 05:24:41;;;;;;;4.30;1.10;;;12.30;99.90;;;;;;5112563;28;20164;-64
2023/06/04 05:27:09;;;;;;;7.65;1.30;;;12.40;99.90;;;;;;5111799;28;20027;-65
2023/06/04 05:29:34;;;;;;;4.63;1.65;;;12.50;99.90;;;;;;5111891;28;20024;-60
2023/06/04 05:32:00;;;;;;;4.70;1.42;;;12.50;99.90;;;;;;5109631;28;20143;-65
2023/06/04 05:34:26;;;;;;;3.67;1.40;;;12.60;99.90;;;;;;5102789;28;20028;-64
2023/06/04 05:36:52;;;;;;;4.32;1.48;;;12.70;99.90;;;;;;5107947;28;20023;-64
2023/06/04 05:39:18;;;;;;;1.80;1.30;;;12.80;99.90;;;;;;5103065;28;20084;-66
2023/06/04 05:41:45;;;;;;;2.20;1.00;;;12.90;99.90;;;;;;5111992;28;20069;-65
2023/06/04 05:44:10;;;;;;;2.00;1.15;;;13.00;99.90;;;;;;5105458;28;20095;-64
2023/06/04 05:46:36;;;;;;;2.25;1.10;;;13.10;99.90;;;;;;5106599;28;20115;-65
2023/06/04 05:49:02;;;;;;;2.13;1.10;;;13.20;99.90;;;;;;5100822;28;20023;-63
2023/06/04 05:51:28;;;;;;;3.15;1.20;;;13.20;99.90;;;;;;5103337;28;20095;-63
2023/06/04 05:53:54;;;;;;;2.95;1.55;;;13.30;99.90;;;;;;5101950;28;20119;-64
2023/06/04 05:56:20;;;;;;;6.65;1.52;;;13.40;99.90;;;;;;5104062;28;20103;-66
2023/06/04 05:58:52;;;;;;;2.78;1.13;;;13.50;99.90;;;;;;5105665;28;20537;-64
2023/06/04 06:01:18;;;;;;;2.53;1.40;;;13.60;99.90;;;;;;5107741;28;20151;-65
2023/06/04 06:03:43;;;;;;;2.83;1.20;;;13.60;99.90;;;;;;5101618;28;20024;-64
2023/06/04 06:06:12;;;;;;;3.35;1.30;;;13.70;99.90;;;;;;5104666;28;20576;-64
2023/06/04 06:08:38;;;;;;;3.38;1.20;;;13.80;99.90;;;;;;5106429;28;20118;-66
2023/06/04 06:11:05;;;;;;;4.50;1.35;;;13.90;99.90;;;;;;5105724;28;20767;-64
2023/06/04 06:13:30;;;;;;;7.40;1.58;;;13.90;99.90;;;;;;5103365;28;20034;-65
2023/06/04 06:15:56;;;;;;;2.03;1.10;;;14.00;99.90;;;;;;5104627;27;20024;-62
2023/06/04 06:18:21;;;;;;;1.83;1.30;;;14.00;99.90;;;;;;5105548;27;20488;-64
2023/06/04 06:20:47;;;;;;;4.72;1.60;;;14.10;99.90;;;;;;5103670;28;20078;-64
2023/06/04 06:23:12;;;;;;;4.50;1.67;;;14.20;99.90;;;;;;5101779;28;20054;-66
2023/06/04 06:25:40;;;;;;;2.80;1.50;;;14.20;99.90;;;;;;5105614;28;20024;-64
2023/06/04 06:28:06;;;;;;;3.88;1.60;;;14.30;99.90;;;;;;5102245;28;20023;-66
2023/06/04 06:30:31;;;;;;;3.63;1.40;;;14.40;99.90;;;;;;5099164;28;20024;-64
2023/06/04 06:32:57;;;;;;;3.47;1.75;;;14.40;99.90;;;;;;5108318;27;20030;-65
2023/06/04 06:35:23;;;;;;;2.60;1.30;;;14.50;99.90;;;;;;5106163;28;20049;-65
2023/06/04 06:37:48;;;;;;;4.40;1.65;;;14.60;99.90;;;;;;5108426;28;20101;-66
2023/06/04 06:40:14;;;;;;;5.88;1.85;;;14.70;99.90;;;;;;5107900;28;20020;-64
2023/06/04 06:42:39;;;;;;;2.85;1.23;;;14.80;99.90;;;;;;5107812;27;20038;-64
2023/06/04 06:45:06;;;;;;;2.35;1.30;;;15.00;99.90;;;;;;5106015;28;20016;-65
2023/06/04 06:47:31;;;;;;;6.25;1.20;;;15.00;99.90;;;;;;5109336;28;20024;-66
2023/06/04 06:49:57;;;;;;;3.65;1.67;;;15.00;99.90;;;;;;5108304;28;20023;-65
2023/06/04 06:52:22;;;;;;;10.52;1.65;;;15.10;99.90;;;;;;5107523;28;20031;-63
2023/06/04 06:54:48;;;;;;;2.83;1.40;;;15.20;99.90;;;;;;5109390;28;20470;-65
2023/06/04 06:57:14;;;;;;;3.33;1.20;;;15.30;99.90;;;;;;5110494;28;20031;-64
2023/06/04 06:59:39;;;;;;;2.30;1.20;;;15.40;99.90;;;;;;5106831;28;20055;-64
2023/06/04 07:02:06;;;;;;;3.50;1.20;;;15.50;99.90;;;;;;5107211;27;20024;-65
2023/06/04 07:04:31;;;;;;;3.65;1.27;;;15.60;99.90;;;;;;5106849;28;20132;-64
2023/06/04 07:06:57;;;;;;;5.45;1.50;;;15.70;99.90;;;;;;5105250;28;20497;-64
2023/06/04 07:09:22;;;;;;;6.22;1.40;;;15.80;99.90;;;;;;5108558;28;20020;-65
2023/06/04 07:11:48;;;;;;;2.88;1.30;;;15.90;99.90;;;;;;5109217;28;20151;-65
2023/06/04 07:14:14;;;;;;;2.40;1.50;;;15.90;99.90;;;;;;5101967;28;20031;-65
2023/06/04 07:16:40;;;;;;;4.00;1.13;;;15.90;99.90;;;;;;5107191;28;20020;-64
2023/06/04 07:19:05;;;;;;;2.40;1.35;;;16.00;99.90;;;;;;5107078;28;20051;-65
2023/06/04 07:21:31;;;;;;;4.13;1.85;;;16.10;99.90;;;;;;5103959;28;20027;-65
2023/06/04 07:23:56;;;;;;;3.88;1.67;;;16.20;99.90;;;;;;5105722;28;20035;-65
2023/06/04 07:26:22;;;;;;;4.15;1.63;;;16.40;99.90;;;;;;5103793;28;20065;-64
2023/06/04 07:28:47;;;;;;;6.03;1.80;;;16.60;99.90;;;;;;5107267;28;20450;-64
2023/06/04 07:31:17;;;;;;;4.85;1.98;;;16.70;99.90;;;;;;5106001;28;20032;-64
2023/06/04 07:33:43;;;;;;;2.80;1.55;;;16.80;99.90;;;;;;5109379;28;20039;-63
2023/06/04 07:36:15;;;;;;;3.75;1.77;;;16.70;99.90;;;;;;5105204;28;20035;-64
2023/06/04 07:38:41;;;;;;;3.38;2.05;;;16.80;99.90;;;;;;5102267;28;20028;-63
2023/06/04 07:41:06;;;;;;;5.72;1.83;;;16.80;99.90;;;;;;5104269;28;20150;-64
2023/06/04 07:43:34;;;;;;;4.20;1.95;;;16.90;99.90;;;;;;5104489;28;20038;-62
2023/06/04 07:46:00;;;;;;;4.60;1.70;;;17.00;99.90;;;;;;5106574;28;20016;-59
2023/06/04 07:48:30;;;;;;;3.92;2.28;;;17.10;99.90;;;;;;5109404;28;20027;-61
2023/06/04 07:50:59;;;;;;;6.20;1.90;;;17.10;99.90;;;;;;5105322;28;20024;-62
2023/06/04 07:53:26;;;;;;;5.22;1.73;;;17.20;99.90;;;;;;5101013;28;20023;-61
2023/06/04 07:55:51;;;;;;;1.70;1.45;;;17.20;99.90;;;;;;5098688;28;20473;-62
2023/06/04 07:58:17;;;;;;;5.47;1.70;;;17.30;99.90;;;;;;5103129;28;20114;-62
2023/06/04 08:00:43;;;;;;;4.55;1.50;;;17.40;99.90;;;;;;5108078;28;20027;-61
2023/06/04 08:03:08;;;;;;;4.45;1.83;;;17.70;99.90;;;;;;5105088;28;20015;-61
2023/06/04 08:05:34;;;;;;;4.45;1.13;;;17.80;99.90;;;;;;5105112;28;20153;-61
2023/06/04 08:08:00;;;;;;;5.53;1.58;;;17.90;99.90;;;;;;5104616;28;20059;-61
2023/06/04 08:10:25;;;;;;;3.42;1.67;;;18.10;99.90;;;;;;5101725;28;20498;-61
2023/06/04 08:12:51;;;;;;;7.70;1.90;;;18.30;99.90;;;;;;5105663;28;20031;-63
2023/06/04 08:15:16;;;;;;;2.30;1.20;;;18.40;99.90;;;;;;5105277;28;20124;-61
2023/06/04 08:17:42;;;;;;;2.63;1.27;;;18.50;99.90;;;;;;5110108;28;20102;-63
2023/06/04 08:20:11;;;;;;;2.85;1.70;;;18.60;99.90;;;;;;5109576;28;20167;-63
2023/06/04 08:22:37;;;;;;;8.07;1.73;;;18.70;99.90;;;;;;5112990;28;20527;-62
2023/06/04 08:25:04;;;;;;;9.20;1.65;;;18.90;99.90;;;;;;5110490;28;20028;-62
2023/06/04 08:27:30;;;;;;;6.97;1.70;;;18.90;99.90;;;;;;5111669;28;20708;-62
2023/06/04 08:29:57;;;;;;;6.70;1.45;;;19.00;99.90;;;;;;5112040;28;20015;-63
2023/06/04 08:32:23;;;;;;;3.83;1.63;;;19.10;99.90;;;;;;5111171;28;20458;-62
2023/06/04 08:34:48;;;;;;;5.32;1.40;;;19.20;99.90;;;;;;5103932;28;20106;-62
2023/06/04 08:37:14;;;;;;;5.95;1.58;;;19.30;99.90;;;;;;5097055;28;20076;-61
2023/06/04 08:39:39;;;;;;;6.78;1.70;;;19.40;99.90;;;;;;5110024;28;20035;-63
2023/06/04 08:42:08;;;;;;;7.30;1.98;;;19.50;99.90;;;;;;5110279;28;20023;-61
2023/06/04 08:44:34;;;;;;;5.80;2.33;;;19.70;99.90;;;;;;5110809;28;20020;-62
2023/06/04 08:47:05;;;;;;;4.43;1.27;;;19.80;99.90;;;;;;5107966;28;20095;-61
2023/06/04 08:49:38;;;;;;;1.70;1.27;;;19.90;99.90;;;;;;5113109;28;20093;-62
2023/06/04 08:52:05;;;;;;;2.55;1.27;;;20.10;99.90;;;;;;5109293;28;20441;-62
2023/06/04 08:54:32;;;;;;;12.38;1.30;;;20.20;99.90;;;;;;5110987;28;20103;-62
2023/06/04 08:57:00;;;;;;;5.22;1.13;;;20.40;98.50;;;;;;5112531;28;20034;-62
2023/06/04 08:59:27;;;;;;;1.88;1.25;;;20.50;97.00;;;;;;5107133;28;20070;-62
2023/06/04 09:01:56;;;;;;;2.50;1.25;;;20.70;96.30;;;;;;5109146;28;20072;-62
2023/06/04 09:04:23;;;;;;;3.08;1.40;;;20.70;98.80;;;;;;5108141;28;20024;-60
2023/06/04 09:06:49;;;;;;;4.13;1.20;;;20.80;99.40;;;;;;5108061;28;20055;-62
2023/06/04 09:09:17;;;;;;;7.47;1.52;;;21.00;98.70;;;;;;5106953;28;20106;-60
2023/06/04 09:11:53;;;;;;;3.22;1.27;;;21.10;98.90;;;;;;5107955;28;20024;-62
2023/06/04 09:14:19;;;;;;;4.93;1.10;;;21.10;99.10;;;;;;5105395;28;20030;-62
2023/06/04 09:16:50;;;;;;;3.90;1.50;;;21.10;99.40;;;;;;5105340;27;20027;-59
2023/06/04 09:19:16;;;;;;;5.28;1.38;;;21.30;98.50;;;;;;5106695;28;20122;-59
2023/06/04 09:22:00;;;;;;;1.77;1.20;;;21.40;97.60;;;;;;5111453;28;20533;-61
2023/06/04 09:24:47;;;;;;;4.82;1.02;;;21.50;95.10;;;;;;5102683;28;20654;-61
2023/06/04 09:27:16;;;;;;;2.30;1.10;;;21.60;93.90;;;;;;5108357;28;20038;-60
2023/06/04 09:29:51;;;;;;;3.30;1.20;;;21.60;93.40;;;;;;5103132;28;20050;-61
2023/06/04 09:32:28;;;;;;;1.77;1.30;;;21.60;92.20;;;;;;5108750;28;20532;-58
2023/06/04 09:34:57;;;;;;;2.47;1.13;;;21.70;93.10;;;;;;5106104;28;20057;-61
2023/06/04 09:37:23;;;;;;;2.08;1.30;;;21.70;93.60;;;;;;5109725;28;20440;-58
2023/06/04 09:39:55;;;;;;;7.15;2.08;;;21.80;93.30;;;;;;5111680;28;20070;-61
2023/06/04 09:42:22;;;;;;;3.30;1.38;;;22.00;94.10;;;;;;5110812;28;20030;-62
2023/06/04 09:44:48;;;;;;;6.07;1.23;;;22.20;95.40;;;;;;5106752;28;20157;-61
2023/06/04 09:47:13;;;;;;;3.10;1.70;;;22.40;96.40;;;;;;5107476;28;20102;-62
2023/06/04 09:49:46;;;;;;;2.13;1.10;;;22.50;95.50;;;;;;5103337;28;20028;-62
2023/06/04 09:52:13;;;;;;;1.77;1.15;;;22.60;91.90;;;;;;5105184;28;20038;-61
2023/06/04 09:54:42;;;;;;;6.68;1.45;;;22.80;95.40;;;;;;5107713;28;20103;-62
2023/06/04 09:57:16;;;;;;;4.50;1.65;;;22.90;93.90;;;;;;5110348;28;20034;-61
2023/06/04 09:59:48;;;;;;;2.40;1.15;;;23.00;92.70;;;;;;5111661;28;20028;-63
2023/06/04 10:02:18;;;;;;;5.47;1.42;;;23.00;89.60;;;;;;5105236;28;20028;-61
2023/06/04 10:04:49;;;;;;;6.20;1.33;;;22.90;91.10;;;;;;5108702;28;20024;-63
2023/06/04 10:07:15;;;;;;;8.55;1.30;;;23.20;93.40;;;;;;5110828;28;20023;-62
2023/06/04 10:09:45;;;;;;;3.80;0.93;;;23.30;91.80;;;;;;5106414;28;20413;-63
2023/06/04 10:12:16;;;;;;;3.80;1.50;;;23.50;85.40;;;;;;5108474;28;20085;-63
2023/06/04 10:14:56;;;;;;;1.92;1.00;;;23.50;91.90;;;;;;5108554;28;20036;-62
2023/06/04 10:17:24;;;;;;;3.03;1.13;;;23.70;87.00;;;;;;5106313;28;20519;-63
2023/06/04 10:19:53;;;;;;;4.93;1.50;;;23.80;87.80;;;;;;5108584;28;20028;-62
2023/06/04 10:22:20;;;;;;;2.78;1.63;;;24.00;90.60;;;;;;5107716;28;20050;-61
2023/06/04 10:24:46;;;;;;;4.53;1.05;;;24.20;83.40;;;;;;5104384;28;20092;-63
2023/06/04 10:27:13;;;;;;;4.10;1.30;;;24.00;83.40;;;;;;5104073;28;20378;-63
2023/06/04 10:29:39;;;;;;;3.50;1.20;;;24.00;89.50;;;;;;5105543;28;20039;-64
2023/06/04 10:32:05;;;;;;;3.53;1.33;;;24.20;91.70;;;;;;5106888;28;20046;-62
2023/06/04 10:34:31;;;;;;;3.03;1.42;;;24.50;82.00;;;;;;5104562;28;20027;-61
2023/06/04 10:36:57;;;;;;;4.30;1.25;;;24.50;79.30;;;;;;5106743;28;20114;-63
2023/06/04 10:39:32;;;;;;;3.10;1.20;;;24.30;79.60;;;;;;5102917;28;20036;-61
2023/06/04 10:42:05;;;;;;;7.93;1.70;;;24.30;79.80;;;;;;5105017;28;20023;-62
2023/06/04 10:44:32;;;;;;;2.47;1.30;;;24.60;90.50;;;;;;5105740;28;20156;-62
2023/06/04 10:46:58;;;;;;;1.38;0.93;;;24.90;74.70;;;;;;5100846;28;20508;-62
2023/06/04 10:49:28;;;;;;;3.13;1.60;;;24.70;78.70;;;;;;5110125;28;20485;-62
2023/06/04 10:52:02;;;;;;;8.77;1.30;;;24.80;88.40;;;;;;5109819;28;20039;-62
2023/06/04 10:54:29;;;;;;;2.90;1.52;;;25.10;86.30;;;;;;5099454;28;20027;-61
2023/06/04 10:56:54;;;;;;;3.35;1.17;;;25.30;87.80;;;;;;5104485;28;20031;-63
2023/06/04 10:59:20;;;;;;;4.53;1.33;;;25.40;84.80;;;;;;5103753;28;20019;-60
2023/06/04 11:01:46;;;;;;;3.42;1.60;;;25.60;85.90;;;;;;5098348;28;20035;-62
2023/06/04 11:04:23;;;;;;;2.33;1.23;;;25.60;81.20;;;;;;5104224;28;20020;-62
2023/06/04 11:07:10;;;;;;;2.63;1.35;;;25.50;78.20;;;;;;5097733;28;20028;-61
2023/06/04 11:09:36;;;;;;;2.38;1.35;;;25.50;81.60;;;;;;5104254;28;20138;-62
2023/06/04 11:12:05;;;;;;;5.35;1.17;;;25.70;78.30;;;;;;5106235;28;20020;-62
2023/06/04 11:14:30;;;;;;;2.10;1.17;;;25.70;74.60;;;;;;5108105;28;20055;-62
2023/06/04 11:16:56;;;;;;;3.58;1.52;;;25.80;72.50;;;;;;5105347;28;20320;-62
2023/06/04 11:19:22;;;;;;;3.22;1.20;;;25.90;67.30;;;;;;5105905;28;20488;-60
2023/06/04 11:21:49;;;;;;;2.63;1.40;;;25.80;67.80;;;;;;5105414;28;20054;-63
2023/06/04 11:24:15;;;;;;;2.72;1.20;;;25.30;69.40;;;;;;5106468;28;20019;-60
2023/06/04 11:26:41;;;;;;;2.28;1.30;;;25.20;83.00;;;;;;5105573;28;20028;-60
2023/06/04 11:29:11;;;;;;;6.10;1.77;;;25.40;82.70;;;;;;5104727;28;20095;-61
2023/06/04 11:31:42;;;;;;;2.42;1.30;;;25.80;72.10;;;;;;5104484;28;20016;-61
2023/06/04 11:34:08;;;;;;;2.65;1.15;;;25.90;66.10;;;;;;5106507;28;20103;-58
2023/06/04 11:36:35;;;;;;;2.55;1.45;;;26.00;66.00;;;;;;5106882;28;20820;-60
2023/06/04 11:39:03;;;;;;;1.70;1.10;;;26.20;67.50;;;;;;5104210;28;20155;-61
2023/06/04 11:41:33;;;;;;;7.10;1.23;;;26.20;64.80;;;;;;5103874;28;20039;-60
2023/06/04 11:44:03;;;;;;;2.42;1.58;;;26.20;77.30;;;;;;5099854;28;20027;-61
2023/06/04 11:46:29;;;;;;;7.53;1.60;;;26.50;80.20;;;;;;5104557;28;20061;-60
2023/06/04 11:48:55;;;;;;;2.25;1.20;;;26.70;70.10;;;;;;5105289;28;20020;-57
2023/06/04 11:51:21;;;;;;;1.20;1.10;;;27.00;66.00;;;;;;5101989;28;20020;-61
2023/06/04 11:53:47;;;;;;;6.05;1.73;;;27.10;64.90;;;;;;5103151;28;20038;-61
2023/06/04 11:56:12;;;;;;;2.22;1.10;;;26.90;61.60;;;;;;5104366;28;20072;-61
2023/06/04 11:58:40;;;;;;;3.65;2.17;;;26.90;67.90;;;;;;5103556;28;20035;-61
2023/06/04 12:01:07;;;;;;;3.03;1.67;;;26.90;65.40;;;;;;5104751;28;20055;-62
2023/06/04 12:03:37;;;;;;;1.90;1.30;;;27.10;60.60;;;;;;5104157;28;20401;-60
2023/06/04 12:06:15;;;;;;;1.95;1.20;;;26.70;60.50;;;;;;5099343;28;20990;-62
2023/06/04 12:09:00;;;;;;;4.32;1.23;;;26.60;63.40;;;;;;5098574;28;20032;-60
2023/06/04 12:11:26;;;;;;;3.63;1.38;;;26.80;61.70;;;;;;5099854;28;20020;-62
2023/06/04 12:13:53;;;;;;;1.92;1.25;;;26.90;68.40;;;;;;5106805;28;20019;-62
2023/06/04 12:16:19;;;;;;;2.17;1.42;;;27.30;61.50;;;;;;5108788;28;20023;-62
2023/06/04 12:18:45;;;;;;;2.47;1.30;;;27.20;60.30;;;;;;5110111;28;20027;-62
2023/06/04 12:21:27;;;;;;;3.92;1.50;;;27.10;58.70;;;;;;5108691;28;20042;-61
2023/06/04 12:24:13;;;;;;;1.60;1.25;;;26.90;59.10;;;;;;5104495;28;20047;-62
2023/06/04 12:26:41;;;;;;;2.03;1.40;;;27.00;59.50;;;;;;5106567;28;20015;-61
2023/06/04 12:29:11;;;;;;;2.60;1.08;;;26.90;59.40;;;;;;5106330;28;20023;-62
2023/06/04 12:31:41;;;;;;;3.25;1.20;;;27.00;58.00;;;;;;5100706;28;20362;-62
2023/06/04 12:34:07;;;;;;;6.95;1.20;;;26.90;58.70;;;;;;5109903;28;20039;-62
2023/06/04 12:36:35;;;;;;;7.72;1.30;;;26.80;60.10;;;;;;5106889;28;20031;-61
2023/06/04 12:39:02;;;;;;;2.78;1.20;;;27.30;59.20;;;;;;5106975;28;20047;-57
2023/06/04 12:41:29;;;;;;;3.92;1.50;;;27.50;59.40;;;;;;5107765;28;20024;-61
2023/06/04 12:43:55;;;;;;;5.15;1.52;;;27.80;61.40;;;;;;5105843;28;20055;-62
2023/06/04 12:46:22;;;;;;;2.25;1.38;;;27.80;63.10;;;;;;5104001;28;20478;-61
2023/06/04 12:48:49;;;;;;;3.13;1.20;;;28.30;63.70;;;;;;5106351;28;20024;-61